Time;durP1;ratioP1;P1;durP2;ratioP2;P2;SDS_P1;SDS_P2;PMS_P1;PMS_P2;Temp;Humidity;BMP_temperature;BMP_pressure;BME280_temperature;BME280_humidity;BME280_pressure;Samples;Min_cycle;Max_cycle;Signal;HPM_P1;HPM_P2
2024/02/15 00:00:27;;;;;;;;;;;;;;;16.69;44.79;101071.84;5102225;28;1085;-56
2024/02/15 00:02:52;;;;;;;;;;;;;;;16.93;43.52;101084.41;5109972;28;1071;-56
2024/02/15 00:05:18;;;;;;;;;;;;;;;16.08;45.27;101082.97;5118074;28;1964;-56
2024/02/15 00:07:43;;;;;;;;;;;;;;;16.80;44.29;101084.38;5117774;28;934;-55
2024/02/15 00:10:09;;;;;;;;;;;;;;;17.02;43.31;101085.53;5115480;28;1002;-54
2024/02/15 00:12:35;;;;;;;;;;;;;;;16.11;44.64;101093.38;5108960;28;1169;-55
2024/02/15 00:15:01;;;;;;;;;;;;;;;15.83;44.59;101081.88;5102521;28;1158;-57
2024/02/15 00:17:29;;;;;;;;;;;;;;;16.21;45.31;101083.84;5099230;28;1014;-58
2024/02/15 00:19:54;;;;;;;;;;;;;;;17.31;42.66;101077.38;5107512;28;1094;-57
2024/02/15 00:22:21;;;;;;;;;;;;;;;16.13;44.83;101073.72;5090915;28;1109;-57
2024/02/15 00:24:48;;;;;;;;;;;;;;;15.86;44.71;101071.06;5105675;28;2600;-58
2024/02/15 00:27:15;;;;;;;;;;;;;;;17.12;43.68;101067.16;5119216;28;1021;-58
2024/02/15 00:29:40;;;;;;;;;;;;;;;17.18;42.96;101065.91;5105069;28;1120;-58
2024/02/15 00:32:06;;;;;;;;;;;;;;;16.20;44.68;101068.84;5116373;28;1215;-59
2024/02/15 00:34:32;;;;;;;;;;;;;;;15.86;44.89;101065.75;5100819;28;1136;-58
2024/02/15 00:36:57;;;;;;;;;;;;;;;17.28;43.35;101066.97;5109583;28;1143;-58
2024/02/15 00:39:23;;;;;;;;;;;;;;;16.75;43.79;101068.75;5100853;28;1129;-58
2024/02/15 00:41:48;;;;;;;;;;;;;;;16.05;44.63;101062.75;5108976;28;1101;-59
2024/02/15 00:44:14;;;;;;;;;;;;;;;16.68;44.50;101069.28;5104788;28;1982;-58
2024/02/15 00:46:41;;;;;;;;;;;;;;;17.07;43.04;101056.84;5107449;28;1145;-60
2024/02/15 00:49:06;;;;;;;;;;;;;;;16.05;44.76;101046.84;5102819;28;1097;-59
2024/02/15 00:51:33;;;;;;;;;;;;;;;15.81;44.89;101054.59;5116013;28;979;-59
2024/02/15 00:53:59;;;;;;;;;;;;;;;17.16;43.54;101059.84;5109192;28;2576;-59
2024/02/15 00:56:25;;;;;;;;;;;;;;;17.07;43.02;101064.81;5107974;28;1098;-60
2024/02/15 00:58:50;;;;;;;;;;;;;;;16.07;44.49;101050.25;5111015;28;1188;-60
2024/02/15 01:01:16;;;;;;;;;;;;;;;15.87;44.66;101052.38;5108415;28;1035;-58
2024/02/15 01:03:41;;;;;;;;;;;;;;;16.18;45.03;101054.88;5105210;28;1113;-58
2024/02/15 01:06:07;;;;;;;;;;;;;;;18.00;41.42;101051.16;5102111;28;1897;-58
2024/02/15 01:08:33;;;;;;;;;;;;;;;16.35;44.38;101043.09;5101624;28;1032;-58
2024/02/15 01:10:58;;;;;;;;;;;;;;;15.84;45.19;101034.00;5117992;28;1060;-60
2024/02/15 01:13:24;;;;;;;;;;;;;;;16.83;44.04;101032.84;5117588;28;1074;-59
2024/02/15 01:15:50;;;;;;;;;;;;;;;17.44;42.06;101032.13;5107534;28;1113;-57
2024/02/15 01:18:15;;;;;;;;;;;;;;;16.22;44.39;101028.94;5113268;28;1117;-57
2024/02/15 01:20:41;;;;;;;;;;;;;;;17.96;41.43;101033.72;5107727;28;1042;-58
2024/02/15 01:23:07;;;;;;;;;;;;;;;16.88;43.36;101033.38;5111729;28;2230;-58
2024/02/15 01:25:33;;;;;;;;;;;;;;;16.11;44.71;101037.63;5107701;28;1897;-58
2024/02/15 01:27:58;;;;;;;;;;;;;;;15.95;45.13;101035.94;5104002;28;1058;-58
2024/02/15 01:30:24;;;;;;;;;;;;;;;18.19;40.97;101040.03;5117773;28;909;-58
2024/02/15 01:32:49;;;;;;;;;;;;;;;16.70;43.52;101030.19;5103917;28;1185;-58
2024/02/15 01:35:15;;;;;;;;;;;;;;;16.07;44.72;101034.31;5107466;28;1288;-58
2024/02/15 01:37:40;;;;;;;;;;;;;;;16.51;44.55;101034.97;5113509;28;1065;-58
2024/02/15 01:40:06;;;;;;;;;;;;;;;17.28;42.48;101045.69;5107672;28;1109;-59
2024/02/15 01:42:32;;;;;;;;;;;;;;;16.22;44.61;101036.91;5102577;27;1291;-58
2024/02/15 01:44:58;;;;;;;;;;;;;;;15.90;44.58;101035.41;5085769;28;1914;-61
2024/02/15 01:47:23;;;;;;;;;;;;;;;15.66;44.31;101036.06;5117774;28;1088;-61
2024/02/15 01:49:49;;;;;;;;;;;;;;;17.80;41.86;101032.19;5103697;28;1068;-60
2024/02/15 01:52:14;;;;;;;;;;;;;;;16.44;44.10;101036.31;5090422;28;1181;-60
2024/02/15 01:54:40;;;;;;;;;;;;;;;15.98;45.31;101026.97;5081540;28;2523;-60
2024/02/15 01:57:06;;;;;;;;;;;;;;;17.69;41.70;101025.03;5101108;28;1161;-60
2024/02/15 01:59:31;;;;;;;;;;;;;;;16.32;44.39;101014.09;5088615;28;1097;-59
2024/02/15 02:01:56;;;;;;;;;;;;;;;15.92;44.72;101014.94;5103530;28;1060;-60
2024/02/15 02:04:22;;;;;;;;;;;;;;;17.97;41.49;101016.78;5098704;28;1910;-60
2024/02/15 02:06:48;;;;;;;;;;;;;;;16.79;43.32;101012.75;5102010;28;863;-59
2024/02/15 02:09:14;;;;;;;;;;;;;;;16.12;44.90;101018.94;5117328;28;1057;-60
2024/02/15 02:11:40;;;;;;;;;;;;;;;17.66;41.68;101011.09;5116883;28;1025;-60
2024/02/15 02:14:05;;;;;;;;;;;;;;;16.32;44.16;101006.13;5117017;28;1093;-60
2024/02/15 02:16:39;;;;;;;;;;;;;;;16.08;44.15;100998.88;5096234;28;1101;-60
2024/02/15 02:19:08;;;;;;;;;;;;;;;16.51;44.49;101004.88;5105121;28;865;-59
2024/02/15 02:21:35;;;;;;;;;;;;;;;16.92;43.04;101008.25;5099908;28;1047;-60
2024/02/15 02:24:00;;;;;;;;;;;;;;;16.07;44.62;101014.88;5107159;28;2496;-59
2024/02/15 02:26:26;;;;;;;;;;;;;;;16.30;44.87;101020.47;5082164;28;1480;-61
2024/02/15 02:28:54;;;;;;;;;;;;;;;17.86;41.29;101031.75;5087961;28;1066;-61
2024/02/15 02:31:21;;;;;;;;;;;;;;;16.40;44.40;101032.16;5098433;28;881;-61
2024/02/15 02:33:51;;;;;;;;;;;;;;;15.93;44.74;101021.97;5096564;28;1183;-61
2024/02/15 02:36:17;;;;;;;;;;;;;;;15.66;44.77;101026.28;5101328;28;1049;-63
2024/02/15 02:38:45;;;;;;;;;;;;;;;17.68;42.14;101022.47;5105244;28;990;-62
2024/02/15 02:41:11;;;;;;;;;;;;;;;16.19;44.82;101010.56;5110910;28;1106;-62
2024/02/15 02:43:37;;;;;;;;;;;;;;;15.81;45.30;101017.44;5116582;28;1088;-63
2024/02/15 02:46:05;;;;;;;;;;;;;;;15.67;44.90;101020.06;5111867;28;1976;-62
2024/02/15 02:48:31;;;;;;;;;;;;;;;17.29;43.02;101018.13;5096289;28;1059;-63
2024/02/15 02:50:57;;;;;;;;;;;;;;;18.32;40.25;101023.97;5115438;28;1030;-63
2024/02/15 02:53:23;;;;;;;;;;;;;;;16.62;43.77;101017.41;5095396;28;2498;-63
2024/02/15 02:55:49;;;;;;;;;;;;;;;16.36;45.13;101028.03;5111007;28;1037;-61
2024/02/15 02:58:14;;;;;;;;;;;;;;;17.87;41.05;101020.16;5108394;28;972;-63
2024/02/15 03:00:40;;;;;;;;;;;;;;;16.54;43.81;101020.59;5102950;28;1120;-62
2024/02/15 03:03:05;;;;;;;;;;;;;;;16.03;44.74;101020.41;5104130;28;1177;-62
2024/02/15 03:05:31;;;;;;;;;;;;;;;17.40;42.59;101009.34;5098740;28;1965;-62
2024/02/15 03:07:57;;;;;;;;;;;;;;;17.12;42.47;101012.22;5108385;28;1053;-63
2024/02/15 03:10:24;;;;;;;;;;;;;;;16.34;43.94;101017.50;5116503;28;1030;-63
2024/02/15 03:12:49;;;;;;;;;;;;;;;15.86;44.58;101013.56;5104244;28;1045;-63
2024/02/15 03:15:15;;;;;;;;;;;;;;;17.60;42.13;101012.41;5115064;28;1169;-62
2024/02/15 03:17:41;;;;;;;;;;;;;;;16.67;43.72;101004.66;5115380;28;1057;-61
2024/02/15 03:20:11;;;;;;;;;;;;;;;16.14;44.24;100998.47;5105616;28;1145;-63
2024/02/15 03:22:38;;;;;;;;;;;;;;;16.07;45.18;101009.59;5120812;28;1089;-62
2024/02/15 03:25:07;;;;;;;;;;;;;;;17.92;40.87;101008.28;5099816;28;2330;-63
2024/02/15 03:27:33;;;;;;;;;;;;;;;16.43;44.10;101013.38;5113216;28;1045;-62
2024/02/15 03:30:00;;;;;;;;;;;;;;;16.71;43.85;101014.13;5112721;28;1130;-61
2024/02/15 03:32:25;;;;;;;;;;;;;;;18.03;40.47;101024.34;5114406;28;1149;-62
2024/02/15 03:34:51;;;;;;;;;;;;;;;16.62;43.58;101010.31;5107544;28;1155;-61
2024/02/15 03:37:18;;;;;;;;;;;;;;;16.03;44.42;101023.06;5105401;28;1196;-61
2024/02/15 03:39:43;;;;;;;;;;;;;;;15.85;44.58;101029.56;5107385;28;1138;-62
2024/02/15 03:42:10;;;;;;;;;;;;;;;16.44;44.47;101032.81;5110507;28;1041;-61
2024/02/15 03:44:35;;;;;;;;;;;;;;;18.00;40.71;101043.16;5119371;28;1906;-63
2024/02/15 03:47:01;;;;;;;;;;;;;;;16.45;44.01;101045.16;5119617;28;1089;-62
2024/02/15 03:49:26;;;;;;;;;;;;;;;16.03;44.26;101046.94;5112385;28;1101;-61
2024/02/15 03:51:54;;;;;;;;;;;;;;;16.11;44.62;101048.25;5099449;28;979;-61
2024/02/15 03:54:22;;;;;;;;;;;;;;;18.22;40.42;101055.75;5105392;28;2808;-60
2024/02/15 03:56:51;;;;;;;;;;;;;;;16.64;43.53;101058.00;5105551;28;1124;-60
2024/02/15 03:59:17;;;;;;;;;;;;;;;16.07;44.39;101057.34;5081642;28;1102;-61
2024/02/15 04:01:42;;;;;;;;;;;;;;;15.84;44.22;101057.03;5113188;28;1156;-61
2024/02/15 04:04:08;;;;;;;;;;;;;;;17.62;41.78;101074.31;5112305;28;1980;-61
2024/02/15 04:06:33;;;;;;;;;;;;;;;16.89;42.86;101067.81;5106107;28;1205;-61
2024/02/15 04:08:59;;;;;;;;;;;;;;;16.16;44.09;101070.03;5119407;28;1029;-58
2024/02/15 04:11:25;;;;;;;;;;;;;;;17.86;41.21;101073.50;5108642;28;1104;-61
2024/02/15 04:13:50;;;;;;;;;;;;;;;16.91;43.12;101072.16;5119504;28;1173;-62
2024/02/15 04:16:16;;;;;;;;;;;;;;;16.19;43.97;101072.47;5090401;28;1052;-62
2024/02/15 04:18:44;;;;;;;;;;;;;;;15.95;43.97;101065.13;5108727;28;1206;-54
2024/02/15 04:21:09;;;;;;;;;;;;;;;17.05;43.12;101063.22;5109855;28;1192;-57
2024/02/15 04:23:34;;;;;;;;;;;;;;;16.97;42.58;101058.44;5116687;28;2553;-59
2024/02/15 04:26:00;;;;;;;;;;;;;;;16.06;44.24;101056.53;5111126;28;1980;-57
2024/02/15 04:28:27;;;;;;;;;;;;;;;15.78;44.27;101058.28;5115816;28;1066;-55
2024/02/15 04:30:52;;;;;;;;;;;;;;;16.26;44.46;101062.31;5111073;28;866;-51
2024/02/15 04:33:18;;;;;;;;;;;;;;;17.59;41.44;101061.22;5107044;28;1113;-51
2024/02/15 04:35:44;;;;;;;;;;;;;;;16.23;44.47;101058.03;5118917;28;1042;-53
2024/02/15 04:38:10;;;;;;;;;;;;;;;16.71;44.00;101063.75;5105381;28;1088;-52
2024/02/15 04:40:38;;;;;;;;;;;;;;;17.27;41.77;101051.94;5118393;28;1073;-50
2024/02/15 04:43:04;;;;;;;;;;;;;;;16.23;44.20;101062.50;5111299;28;1005;-50
2024/02/15 04:45:30;;;;;;;;;;;;;;;15.88;44.46;101066.50;5098370;28;1906;-47
2024/02/15 04:48:01;;;;;;;;;;;;;;;15.71;44.17;101065.78;5111725;28;1097;-50
2024/02/15 04:50:27;;;;;;;;;;;;;;;16.59;43.98;101068.94;5098556;28;1007;-54
2024/02/15 04:52:52;;;;;;;;;;;;;;;18.35;40.25;101069.00;5113444;28;2475;-57
2024/02/15 04:55:18;;;;;;;;;;;;;;;16.73;43.09;101070.66;5099982;28;883;-55
2024/02/15 04:57:43;;;;;;;;;;;;;;;16.06;44.10;101088.38;5110666;28;1124;-53
2024/02/15 05:00:11;;;;;;;;;;;;;;;16.51;44.10;101088.06;5098858;28;1115;-53
2024/02/15 05:02:40;;;;;;;;;;;;;;;17.39;41.78;101084.78;5118405;28;1018;-53
2024/02/15 05:05:09;;;;;;;;;;;;;;;16.27;43.76;101086.09;5118082;28;1977;-55
2024/02/15 05:07:37;;;;;;;;;;;;;;;17.35;42.37;101083.31;5105616;28;1149;-50
2024/02/15 05:10:06;;;;;;;;;;;;;;;17.33;41.63;101077.25;5111026;28;1072;-48
2024/02/15 05:12:31;;;;;;;;;;;;;;;16.25;43.67;101082.69;5097609;28;1155;-49
2024/02/15 05:14:57;;;;;;;;;;;;;;;16.90;43.13;101103.19;5104708;28;1079;-51
2024/02/15 05:17:22;;;;;;;;;;;;;;;17.62;41.08;101100.91;5104909;28;1108;-49
2024/02/15 05:19:48;;;;;;;;;;;;;;;17.14;41.77;101113.09;5110311;28;1105;-54
2024/02/15 05:22:15;;;;;;;;;;;;;;;16.92;42.53;101109.25;5118218;28;1084;-47
2024/02/15 05:24:40;;;;;;;;;;;;;;;16.69;42.78;101117.00;5117494;28;2623;-50
2024/02/15 05:27:06;;;;;;;;;;;;;;;16.44;43.36;101129.25;5104801;28;1137;-52
2024/02/15 05:29:35;;;;;;;;;;;;;;;16.30;43.56;101131.97;5117810;28;1035;-54
2024/02/15 05:32:01;;;;;;;;;;;;;;;16.12;43.82;101133.06;5103127;28;937;-50
2024/02/15 05:34:27;;;;;;;;;;;;;;;15.96;44.37;101135.84;5082764;28;1692;-53
2024/02/15 05:36:52;;;;;;;;;;;;;;;15.87;44.36;101128.47;5098332;28;1071;-56
2024/02/15 05:39:21;;;;;;;;;;;;;;;15.73;44.69;101134.66;5110072;28;1200;-55
2024/02/15 05:41:47;;;;;;;;;;;;;;;15.63;44.92;101132.56;5111422;28;1049;-56
2024/02/15 05:44:14;;;;;;;;;;;;;;;15.53;44.89;101139.41;5102650;28;1982;-54
2024/02/15 05:46:40;;;;;;;;;;;;;;;15.42;45.15;101137.41;5110237;28;1042;-54
2024/02/15 05:49:05;;;;;;;;;;;;;;;15.24;45.49;101147.34;5097480;28;936;-51
2024/02/15 05:51:31;;;;;;;;;;;;;;;15.21;45.46;101151.06;5110502;28;1026;-50
2024/02/15 05:54:00;;;;;;;;;;;;;;;16.47;42.68;101157.41;5104246;28;2664;-52
2024/02/15 05:56:26;;;;;;;;;;;;;;;17.22;41.03;101149.78;5111738;28;850;-50
2024/02/15 05:58:52;;;;;;;;;;;;;;;16.24;43.21;101163.28;5117279;28;1157;-49
2024/02/15 06:01:17;;;;;;;;;;;;;;;15.83;44.21;101164.94;5106431;28;1128;-49
2024/02/15 06:03:44;;;;;;;;;;;;;;;15.59;44.58;101165.53;5109945;28;2357;-50
2024/02/15 06:06:11;;;;;;;;;;;;;;;15.39;45.26;101172.94;5107898;28;1990;-47
2024/02/15 06:08:37;;;;;;;;;;;;;;;15.29;45.15;101171.78;5115180;28;1033;-54
2024/02/15 06:11:03;;;;;;;;;;;;;;;16.09;43.84;101157.16;5117580;28;1066;-48
2024/02/15 06:13:29;;;;;;;;;;;;;;;17.30;41.17;101170.53;5113227;28;1139;-52
2024/02/15 06:15:54;;;;;;;;;;;;;;;16.39;42.83;101172.06;5107512;28;1062;-53
2024/02/15 06:18:24;;;;;;;;;;;;;;;15.87;43.86;101161.16;5117070;28;1088;-58
2024/02/15 06:20:53;;;;;;;;;;;;;;;15.59;44.33;101162.03;5101549;28;860;-44
2024/02/15 06:23:18;;;;;;;;;;;;;;;15.41;44.68;101170.19;5108588;27;2343;-54
2024/02/15 06:25:50;;;;;;;;;;;;;;;15.83;44.08;101172.06;5109023;28;2153;-53
2024/02/15 06:41:56;;;;;;;;;;;;;;;15.40;44.89;101197.63;5095655;28;3059;-52
2024/02/15 06:44:23;;;;;;;;;;;;;;;16.88;41.74;101193.63;5095685;28;1922;-53
2024/02/15 06:46:49;;;;;;;;;;;;;;;16.61;42.17;101199.00;5097938;28;1215;-51
2024/02/15 06:49:16;;;;;;;;;;;;;;;16.01;43.70;101207.22;5103590;28;1168;-49
2024/02/15 06:51:41;;;;;;;;;;;;;;;15.64;44.46;101213.00;5098075;28;1488;-50
2024/02/15 06:54:07;;;;;;;;;;;;;;;15.46;44.58;101207.88;5100446;28;1192;-51
2024/02/15 06:56:36;;;;;;;;;;;;;;;15.22;45.42;101215.50;5103655;28;1340;-51
2024/02/15 06:59:01;;;;;;;;;;;;;;;16.46;42.97;101208.81;5103039;28;1434;-48
2024/02/15 07:01:28;;;;;;;;;;;;;;;17.15;41.08;101205.19;5104880;28;1086;-51
2024/02/15 07:03:53;;;;;;;;;;;;;;;16.21;42.89;101199.78;5099533;28;1035;-51
2024/02/15 07:06:19;;;;;;;;;;;;;;;15.81;43.96;101193.38;5099285;28;2195;-51
2024/02/15 07:08:45;;;;;;;;;;;;;;;15.64;44.54;101191.78;5098031;28;861;-57
2024/02/15 07:11:11;;;;;;;;;;;;;;;16.61;42.59;101186.56;5099643;28;1054;-57
2024/02/15 07:13:39;;;;;;;;;;;;;;;17.62;40.30;101188.69;5106343;28;1095;-59
2024/02/15 07:16:08;;;;;;;;;;;;;;;16.68;41.80;101187.03;5114542;28;1077;-54
2024/02/15 07:18:33;;;;;;;;;;;;;;;16.17;43.12;101196.47;5099580;28;983;-51
2024/02/15 07:21:00;;;;;;;;;;;;;;;15.81;44.12;101201.34;5099414;28;948;-58
2024/02/15 07:23:27;;;;;;;;;;;;;;;15.64;44.30;101207.69;5100056;28;1201;-51
2024/02/15 07:25:53;;;;;;;;;;;;;;;16.23;43.18;101206.69;5100992;28;1968;-55
2024/02/15 07:28:20;;;;;;;;;;;;;;;17.49;40.62;101216.19;5112902;28;1189;-52
2024/02/15 07:30:48;;;;;;;;;;;;;;;16.70;41.87;101214.31;5100656;28;1039;-51
2024/02/15 07:33:17;;;;;;;;;;;;;;;16.17;43.25;101207.09;5119912;28;910;-50
2024/02/15 07:35:43;;;;;;;;;;;;;;;15.81;44.11;101197.84;5104597;28;2081;-50
2024/02/15 07:38:10;;;;;;;;;;;;;;;15.66;44.21;101197.84;5113580;28;1075;-55
2024/02/15 07:40:35;;;;;;;;;;;;;;;16.10;43.39;101193.38;5100101;28;1007;-53
2024/02/15 07:43:03;;;;;;;;;;;;;;;17.37;40.79;101196.59;5099801;28;1093;-60
2024/02/15 07:45:29;;;;;;;;;;;;;;;16.63;42.03;101207.72;5098870;28;1898;-55
2024/02/15 07:47:55;;;;;;;;;;;;;;;16.11;43.19;101194.22;5099355;28;1010;-57
2024/02/15 07:50:22;;;;;;;;;;;;;;;15.81;44.10;101189.88;5099877;28;996;-52
2024/02/15 07:52:48;;;;;;;;;;;;;;;15.59;44.77;101196.50;5112307;28;1030;-53
2024/02/15 07:55:14;;;;;;;;;;;;;;;15.45;44.85;101192.06;5099221;28;1034;-55
2024/02/15 07:57:39;;;;;;;;;;;;;;;16.64;42.35;101186.38;5101376;28;900;-49
2024/02/15 08:00:10;;;;;;;;;;;;;;;17.54;40.33;101207.00;5102271;28;1015;-56
2024/02/15 08:02:42;;;;;;;;;;;;;;;16.48;42.48;101191.81;5112849;28;1070;-49
2024/02/15 08:05:10;;;;;;;;;;;;;;;16.03;43.33;101198.19;5098999;28;1905;-59
2024/02/15 08:07:40;;;;;;;;;;;;;;;15.76;44.22;101200.78;5101712;28;2220;-50
2024/02/15 08:10:12;;;;;;;;;;;;;;;15.55;44.49;101201.16;5099273;28;1110;-57
2024/02/15 08:12:38;;;;;;;;;;;;;;;15.93;44.12;101193.56;5107985;28;1383;-50
2024/02/15 08:15:04;;;;;;;;;;;;;;;17.30;40.84;101199.78;5107229;28;1098;-50
2024/02/15 08:17:30;;;;;;;;;;;;;;;16.95;41.33;101196.72;5101724;28;1038;-50
2024/02/15 08:19:55;;;;;;;;;;;;;;;16.19;42.99;101181.31;5115418;28;1026;-49
2024/02/15 08:22:23;;;;;;;;;;;;;;;15.93;43.47;101188.25;5112086;28;1049;-49
2024/02/15 08:24:52;;;;;;;;;;;;;;;15.67;44.47;101197.75;5099850;28;1988;-52
2024/02/15 08:27:17;;;;;;;;;;;;;;;15.46;44.48;101183.16;5111299;28;1414;-50
2024/02/15 08:29:43;;;;;;;;;;;;;;;15.92;44.05;101187.38;5099972;28;1056;-50
2024/02/15 08:32:08;;;;;;;;;;;;;;;17.21;41.04;101180.00;5098663;28;983;-51
2024/02/15 08:34:34;;;;;;;;;;;;;;;16.93;41.24;101172.09;5098378;28;1141;-51
2024/02/15 08:36:59;;;;;;;;;;;;;;;16.25;43.15;101167.63;5111788;28;1046;-50
2024/02/15 08:39:25;;;;;;;;;;;;;;;15.86;43.59;101154.16;5098934;28;1073;-54
2024/02/15 08:41:53;;;;;;;;;;;;;;;15.66;44.34;101150.94;5098731;28;1043;-52
2024/02/15 08:44:19;;;;;;;;;;;;;;;15.45;44.71;101158.44;5098212;28;1898;-52
2024/02/15 08:46:44;;;;;;;;;;;;;;;16.71;42.33;101154.06;5098126;28;1110;-54
2024/02/15 08:49:13;;;;;;;;;;;;;;;17.37;40.62;101150.53;5098341;28;1034;-52
2024/02/15 08:51:55;;;;;;;;;;;;;;;16.34;42.77;101144.94;5106625;28;1249;-55
2024/02/15 08:54:38;;;;;;;;;;;;;;;15.94;43.41;101131.56;5095675;28;1352;-51
2024/02/15 08:57:04;;;;;;;;;;;;;;;15.77;44.19;101131.72;5097488;28;1122;-52
2024/02/15 08:59:30;;;;;;;;;;;;;;;15.48;44.71;101134.38;5097660;28;1158;-51
2024/02/15 09:01:56;;;;;;;;;;;;;;;16.12;43.51;101126.91;5100514;28;1031;-49
2024/02/15 09:04:23;;;;;;;;;;;;;;;17.30;40.75;101112.88;5098175;28;1980;-48
2024/02/15 09:06:48;;;;;;;;;;;;;;;16.53;42.02;101117.19;5108294;28;1162;-46
2024/02/15 09:09:14;;;;;;;;;;;;;;;16.05;43.40;101105.22;5099327;28;950;-48
2024/02/15 09:11:40;;;;;;;;;;;;;;;15.72;44.15;101104.63;5097704;28;1194;-51
2024/02/15 09:14:06;;;;;;;;;;;;;;;15.60;44.36;101114.19;5108504;28;895;-55
2024/02/15 09:16:33;;;;;;;;;;;;;;;15.49;44.81;101098.13;5098695;28;1034;-53
2024/02/15 09:19:00;;;;;;;;;;;;;;;16.87;41.82;101087.44;5110069;28;1098;-48
2024/02/15 09:21:28;;;;;;;;;;;;;;;17.19;40.70;101076.41;5097329;28;1059;-49
2024/02/15 09:23:53;;;;;;;;;;;;;;;16.28;42.54;101068.38;5105297;28;1395;-49
2024/02/15 09:26:19;;;;;;;;;;;;;;;15.94;43.80;101046.66;5097338;28;1910;-51
2024/02/15 09:28:44;;;;;;;;;;;;;;;15.65;44.34;101043.16;5097396;28;1046;-55
2024/02/15 09:31:13;;;;;;;;;;;;;;;15.51;44.35;101049.38;5097591;28;1146;-50
2024/02/15 09:33:39;;;;;;;;;;;;;;;16.17;43.28;101045.19;5104556;28;1163;-52
2024/02/15 09:36:04;;;;;;;;;;;;;;;17.34;40.49;101041.72;5097164;28;1538;-50
2024/02/15 09:38:30;;;;;;;;;;;;;;;16.90;41.27;101028.78;5104687;28;1301;-49
2024/02/15 09:40:55;;;;;;;;;;;;;;;16.21;42.95;101038.72;5103788;28;1149;-50
2024/02/15 09:43:21;;;;;;;;;;;;;;;15.86;43.37;101018.00;5105571;28;1225;-51
2024/02/15 09:45:47;;;;;;;;;;;;;;;15.59;44.27;101014.38;5109042;28;1914;-50
2024/02/15 09:48:14;;;;;;;;;;;;;;;15.46;44.24;101013.47;5107081;28;1473;-50
2024/02/15 09:53:28;;;;;;;;;;;;;;;17.42;40.12;101004.78;5580117;23;8457;-45
2024/02/15 09:55:54;;;;;;;;;;;;;;;16.47;42.11;101021.97;4953729;28;1939;-43
2024/02/15 09:58:20;;;;;;;;;;;;;;;15.95;43.12;101008.59;4934737;29;2138;-41
2024/02/15 10:00:46;;;;;;;;;;;;;;;15.74;43.68;100993.97;4948557;29;2108;-43
2024/02/15 10:03:12;;;;;;;;;;;;;;;15.57;44.36;101007.47;4953072;28;2171;-45
2024/02/15 10:05:39;;;;;;;;;;;;;;;15.61;44.14;101009.00;4927033;29;2130;-45
2024/02/15 10:08:05;;;;;;;;;;;;;;;17.03;41.06;100991.56;4958071;29;2097;-47
2024/02/15 10:10:33;;;;;;;;;;;;;;;17.05;40.68;100997.63;4957235;29;2225;-42
2024/02/15 10:13:00;;;;;;;;;;;;;;;16.22;42.42;100999.75;4958347;29;1149;-44
2024/02/15 10:15:32;;;;;;;;;;;;;;;15.86;43.58;100992.31;4963889;28;1248;-42
2024/02/15 10:17:58;;;;;;;;;;;;;;;15.58;43.84;100987.97;4950980;29;1138;-43
2024/02/15 10:20:25;;;;;;;;;;;;;;;15.47;44.49;100986.00;4957551;29;1268;-46
2024/02/15 10:23:11;;;;;;;;;;;;;;;16.29;42.59;100998.38;4953586;29;967;-45
2024/02/15 10:25:37;;;;;;;;;;;;;;;17.52;39.92;101015.59;4956417;28;1898;-48
2024/02/15 10:28:06;;;;;;;;;;;;;;;16.59;41.88;100993.72;4953194;29;1050;-48
2024/02/15 10:30:33;;;;;;;;;;;;;;;16.07;42.73;100988.34;4957958;29;1315;-43
2024/02/15 10:32:58;;;;;;;;;;;;;;;16.46;42.56;101042.38;4957362;29;1296;-42
2024/02/15 10:35:24;;;;;;;;;;;;;;;15.67;43.55;101003.28;4957527;29;1530;-45
2024/02/15 10:37:51;;;;;;;;;;;;;;;15.57;44.17;101010.97;4958297;29;1359;-41
2024/02/15 10:40:20;;;;;;;;;;;;;;;16.96;41.22;101020.41;4957831;29;2118;-42
2024/02/15 10:42:46;;;;;;;;;;;;;;;17.59;39.35;101008.88;4957972;29;1084;-44
2024/02/15 10:45:12;;;;;;;;;;;;;;;16.49;41.92;101015.63;4955412;28;1982;-44
2024/02/15 10:47:39;;;;;;;;;;;;;;;16.20;42.91;101005.16;4953197;29;1241;-47
2024/02/15 10:50:05;;;;;;;;;;;;;;;16.12;42.99;101013.66;4958391;28;868;-42
2024/02/15 10:52:31;;;;;;;;;;;;;;;15.78;43.89;101018.50;4957558;29;1217;-44
2024/02/15 10:55:03;;;;;;;;;;;;;;;15.62;44.36;101032.75;4958407;29;1125;-43
2024/02/15 10:57:28;;;;;;;;;;;;;;;17.00;41.46;101028.97;4954891;29;1440;-41
2024/02/15 10:59:57;;;;;;;;;;;;;;;17.49;40.17;101027.31;4957776;29;1177;-44
2024/02/15 11:02:23;;;;;;;;;;;;;;;16.45;41.99;101014.13;4957944;29;1130;-41
2024/02/15 11:04:50;;;;;;;;;;;;;;;15.99;43.21;101018.94;4958535;29;1910;-45
2024/02/15 11:07:17;;;;;;;;;;;;;;;15.82;43.54;101014.69;4957860;29;1141;-43
2024/02/15 11:09:43;;;;;;;;;;;;;;;16.48;42.31;101013.91;4952936;29;1216;-43
2024/02/15 11:12:09;;;;;;;;;;;;;;;17.11;40.95;101012.31;4957095;29;1138;-52
2024/02/15 11:14:34;;;;;;;;;;;;;;;18.41;38.20;100985.13;4940717;29;1165;-47
2024/02/15 11:17:06;;;;;;;;;;;;;;;18.23;38.28;101011.34;4941791;29;1066;-50
2024/02/15 11:19:32;;;;;;;;;;;;;;;17.58;39.69;100999.19;4957907;28;1145;-49
2024/02/15 11:21:57;;;;;;;;;;;;;;;17.41;39.87;101002.25;4951115;29;1030;-50
2024/02/15 11:24:27;;;;;;;;;;;;;;;17.69;39.50;101011.72;4953899;29;1980;-47
2024/02/15 11:26:53;;;;;;;;;;;;;;;18.40;38.04;101011.88;4958176;29;1200;-45
2024/02/15 11:29:37;;;;;;;;;;;;;;;17.84;39.17;101003.56;4955962;29;1357;-50
2024/02/15 11:32:05;;;;;;;;;;;;;;;17.59;39.44;101016.00;4957229;29;1311;-47
2024/02/15 11:34:46;;;;;;;;;;;;;;;17.54;39.61;101002.19;4957318;29;926;-49
2024/02/15 11:37:30;;;;;;;;;;;;;;;17.32;40.12;101009.91;4957400;28;1137;-42
2024/02/15 11:39:59;;;;;;;;;;;;;;;17.34;40.05;101008.00;4961495;29;1194;-45
2024/02/15 11:42:30;;;;;;;;;;;;;;;17.28;39.99;100992.50;4961423;29;1108;-44
2024/02/15 11:45:04;;;;;;;;;;;;;;;18.24;38.57;100986.41;4960892;29;1910;-55
2024/02/15 11:47:31;;;;;;;;;;;;;;;18.29;38.19;100996.72;4961142;29;872;-49
2024/02/15 11:49:56;;;;;;;;;;;;;;;17.95;39.03;101011.56;4961661;29;1150;-52
2024/02/15 11:52:22;;;;;;;;;;;;;;;17.55;39.96;101015.38;4960867;29;1037;-46
2024/02/15 11:54:48;;;;;;;;;;;;;;;17.65;39.95;101012.88;4960845;29;1173;-52
2024/02/15 11:57:14;;;;;;;;;;;;;;;17.38;40.39;101000.66;4961267;29;1038;-49
2024/02/15 11:59:53;;;;;;;;;;;;;;;17.24;41.00;101001.66;4942944;29;1290;-47
2024/02/15 12:18:47;;;;;;;;;;;;;;;17.18;41.89;101007.41;4960527;29;1129;-46
2024/02/15 12:21:22;;;;;;;;;;;;;;;17.07;42.29;101019.63;4943407;29;1168;-46
2024/02/15 12:23:49;;;;;;;;;;;;;;;17.13;42.25;101016.56;4956057;29;892;-45
2024/02/15 12:26:18;;;;;;;;;;;;;;;16.19;44.17;101016.75;4943236;29;1989;-45
2024/02/15 12:28:43;;;;;;;;;;;;;;;15.82;45.11;101033.25;4960407;29;1130;-46
2024/02/15 12:31:09;;;;;;;;;;;;;;;15.48;45.89;101030.97;4960536;29;1089;-46
2024/02/15 12:33:35;;;;;;;;;;;;;;;16.38;44.04;101032.25;4942983;29;1094;-47
2024/02/15 12:36:07;;;;;;;;;;;;;;;17.37;41.75;101023.75;4959417;29;982;-45
2024/02/15 12:38:37;;;;;;;;;;;;;;;16.40;43.69;101035.66;4960321;29;1327;-46
2024/02/15 12:41:02;;;;;;;;;;;;;;;15.94;44.70;101031.59;4960534;29;1402;-45
2024/02/15 12:43:28;;;;;;;;;;;;;;;15.69;44.97;101016.44;4942830;29;1339;-45
2024/02/15 12:45:56;;;;;;;;;;;;;;;15.45;45.70;101022.38;4959545;29;1977;-50
2024/02/15 12:48:22;;;;;;;;;;;;;;;15.53;45.71;101022.75;4960076;28;1105;-46
2024/02/15 12:50:47;;;;;;;;;;;;;;;16.97;42.27;101011.44;4959525;29;1073;-46
2024/02/15 12:53:13;;;;;;;;;;;;;;;16.94;42.03;101022.31;4960036;29;1370;-48
2024/02/15 12:55:39;;;;;;;;;;;;;;;16.13;43.89;101018.00;4942507;29;1432;-48
2024/02/15 12:58:08;;;;;;;;;;;;;;;15.83;44.70;101021.69;4958260;29;1149;-45
2024/02/15 13:00:36;;;;;;;;;;;;;;;15.56;45.04;101014.59;4942830;29;1311;-46
2024/02/15 13:03:03;;;;;;;;;;;;;;;15.45;45.36;101025.88;4936990;29;1221;-47
2024/02/15 13:05:29;;;;;;;;;;;;;;;15.29;45.48;101023.34;4958916;29;1965;-46
2024/02/15 13:07:55;;;;;;;;;;;;;;;16.48;43.38;101026.34;4958543;29;1193;-48
2024/02/15 13:10:21;;;;;;;;;;;;;;;17.36;41.15;101013.22;4945168;29;1117;-47
2024/02/15 13:12:46;;;;;;;;;;;;;;;16.33;43.34;101015.78;4957996;28;1003;-45
2024/02/15 13:15:15;;;;;;;;;;;;;;;15.86;44.40;101012.69;4958717;29;1045;-48
2024/02/15 13:17:44;;;;;;;;;;;;;;;15.60;44.91;101007.31;4959230;29;1062;-42